sensor_id;sensor_type;location;lat;lon;timestamp;pressure;altitude;pressure_sealevel;temperature;humidity
24390;BME280;12510;56.468;-3.004;2023-03-21T00:02:12;99386.50;;;20.01;83.53
24390;BME280;12510;56.468;-3.004;2023-03-21T00:04:39;99381.78;;;20.39;81.33
24390;BME280;12510;56.468;-3.004;2023-03-21T00:07:05;99381.16;;;20.25;83.06
24390;BME280;12510;56.468;-3.004;2023-03-21T00:09:32;99387.44;;;20.19;82.52
24390;BME280;12510;56.468;-3.004;2023-03-21T00:11:58;99382.78;;;20.14;83.94
24390;BME280;12510;56.468;-3.004;2023-03-21T00:14:27;99383.72;;;20.08;84.82
24390;BME280;12510;56.468;-3.004;2023-03-21T00:16:56;99378.97;;;20.22;84.20
24390;BME280;12510;56.468;-3.004;2023-03-21T00:19:22;99368.41;;;20.39;83.71
24390;BME280;12510;56.468;-3.004;2023-03-21T00:21:51;99373.66;;;20.46;82.94
24390;BME280;12510;56.468;-3.004;2023-03-21T00:24:19;99373.16;;;20.49;82.93
24390;BME280;12510;56.468;-3.004;2023-03-21T00:26:48;99360.59;;;20.49;83.05
24390;BME280;12510;56.468;-3.004;2023-03-21T00:29:15;99352.03;;;20.59;83.23
24390;BME280;12510;56.468;-3.004;2023-03-21T00:31:45;99350.03;;;20.66;82.78
24390;BME280;12510;56.468;-3.004;2023-03-21T00:34:12;99353.28;;;20.68;82.75
24390;BME280;12510;56.468;-3.004;2023-03-21T00:36:38;99342.50;;;21.16;80.58
24390;BME280;12510;56.468;-3.004;2023-03-21T00:39:06;99336.06;;;20.88;81.11
24390;BME280;12510;56.468;-3.004;2023-03-21T00:41:33;99334.13;;;20.71;82.26
24390;BME280;12510;56.468;-3.004;2023-03-21T00:43:59;99326.22;;;20.76;82.44
24390;BME280;12510;56.468;-3.004;2023-03-21T00:46:27;99327.94;;;20.71;82.55
24390;BME280;12510;56.468;-3.004;2023-03-21T00:48:53;99324.56;;;20.75;82.37
24390;BME280;12510;56.468;-3.004;2023-03-21T00:51:22;99318.91;;;21.13;82.14
24390;BME280;12510;56.468;-3.004;2023-03-21T00:53:56;99317.28;;;21.12;80.99
24390;BME280;12510;56.468;-3.004;2023-03-21T00:56:26;99308.66;;;21.67;79.29
24390;BME280;12510;56.468;-3.004;2023-03-21T00:58:53;99295.28;;;21.38;78.87
24390;BME280;12510;56.468;-3.004;2023-03-21T01:01:19;99298.63;;;21.17;80.40
24390;BME280;12510;56.468;-3.004;2023-03-21T01:03:46;99296.38;;;20.97;81.54
24390;BME280;12510;56.468;-3.004;2023-03-21T01:06:17;99292.59;;;20.81;83.28
24390;BME280;12510;56.468;-3.004;2023-03-21T01:08:45;99287.25;;;20.57;85.35
24390;BME280;12510;56.468;-3.004;2023-03-21T01:11:16;99286.00;;;21.00;82.13
24390;BME280;12510;56.468;-3.004;2023-03-21T01:13:44;99276.38;;;20.99;81.50
24390;BME280;12510;56.468;-3.004;2023-03-21T01:16:11;99276.00;;;20.96;81.98
24390;BME280;12510;56.468;-3.004;2023-03-21T01:18:39;99268.88;;;21.01;81.86
24390;BME280;12510;56.468;-3.004;2023-03-21T01:21:10;99264.03;;;20.98;82.01
24390;BME280;12510;56.468;-3.004;2023-03-21T01:23:39;99268.09;;;21.01;81.85
24390;BME280;12510;56.468;-3.004;2023-03-21T01:26:07;99259.38;;;20.93;82.23
24390;BME280;12510;56.468;-3.004;2023-03-21T01:28:35;99259.22;;;20.59;84.63
24390;BME280;12510;56.468;-3.004;2023-03-21T01:31:03;99254.09;;;20.58;85.18
24390;BME280;12510;56.468;-3.004;2023-03-21T01:33:30;99250.38;;;20.59;85.43
24390;BME280;12510;56.468;-3.004;2023-03-21T01:35:57;99241.75;;;21.09;83.09
24390;BME280;12510;56.468;-3.004;2023-03-21T01:38:27;99235.47;;;21.50;81.09
24390;BME280;12510;56.468;-3.004;2023-03-21T01:40:53;99233.03;;;21.48;79.54
24390;BME280;12510;56.468;-3.004;2023-03-21T01:43:33;99224.75;;;21.50;79.61
24390;BME280;12510;56.468;-3.004;2023-03-21T01:51:56;99211.41;;;21.84;78.59
24390;BME280;12510;56.468;-3.004;2023-03-21T01:54:26;99205.56;;;21.53;79.88
24390;BME280;12510;56.468;-3.004;2023-03-21T01:56:56;99204.78;;;21.23;81.13
24390;BME280;12510;56.468;-3.004;2023-03-21T01:59:34;99202.31;;;21.05;84.19
24390;BME280;12510;56.468;-3.004;2023-03-21T02:02:34;99204.16;;;21.33;82.52
24390;BME280;12510;56.468;-3.004;2023-03-21T02:08:11;99193.00;;;21.53;81.09
24390;BME280;12510;56.468;-3.004;2023-03-21T02:10:41;99179.09;;;21.56;81.24
24390;BME280;12510;56.468;-3.004;2023-03-21T02:13:11;99174.38;;;21.47;81.00
24390;BME280;12510;56.468;-3.004;2023-03-21T02:15:41;99176.91;;;21.53;80.96
24390;BME280;12510;56.468;-3.004;2023-03-21T02:18:29;99170.84;;;21.58;80.30
24390;BME280;12510;56.468;-3.004;2023-03-21T02:45:29;99118.44;;;21.67;79.26
24390;BME280;12510;56.468;-3.004;2023-03-21T02:48:03;99116.59;;;21.51;80.57
24390;BME280;12510;56.468;-3.004;2023-03-21T02:50:45;99116.28;;;21.64;80.90
24390;BME280;12510;56.468;-3.004;2023-03-21T02:53:18;99109.44;;;21.73;79.78
24390;BME280;12510;56.468;-3.004;2023-03-21T02:55:46;99104.34;;;21.55;81.28
24390;BME280;12510;56.468;-3.004;2023-03-21T02:58:16;99096.91;;;21.57;81.00
24390;BME280;12510;56.468;-3.004;2023-03-21T03:00:51;99096.91;;;21.57;80.87
24390;BME280;12510;56.468;-3.004;2023-03-21T03:03:36;99093.22;;;21.63;80.67
24390;BME280;12510;56.468;-3.004;2023-03-21T03:06:21;99094.41;;;21.72;81.02
24390;BME280;12510;56.468;-3.004;2023-03-21T03:08:55;99093.91;;;21.53;81.89
24390;BME280;12510;56.468;-3.004;2023-03-21T03:11:33;99085.94;;;21.58;81.92
24390;BME280;12510;56.468;-3.004;2023-03-21T03:14:48;99084.47;;;21.34;83.64
24390;BME280;12510;56.468;-3.004;2023-03-21T03:17:02;99080.25;;;21.55;82.03
24390;BME280;12510;56.468;-3.004;2023-03-21T03:19:47;99076.53;;;21.56;82.30
24390;BME280;12510;56.468;-3.004;2023-03-21T03:22:25;99073.91;;;21.61;81.52
24390;BME280;12510;56.468;-3.004;2023-03-21T03:25:00;99075.38;;;21.52;82.06
24390;BME280;12510;56.468;-3.004;2023-03-21T03:27:32;99066.38;;;21.58;81.79
24390;BME280;12510;56.468;-3.004;2023-03-21T03:30:04;99063.72;;;21.58;81.48
24390;BME280;12510;56.468;-3.004;2023-03-21T03:32:50;99066.25;;;21.70;81.74
24390;BME280;12510;56.468;-3.004;2023-03-21T03:35:19;99058.91;;;21.60;81.62
24390;BME280;12510;56.468;-3.004;2023-03-21T03:37:53;99058.91;;;21.60;82.10
24390;BME280;12510;56.468;-3.004;2023-03-21T03:40:35;99051.25;;;21.69;81.74
24390;BME280;12510;56.468;-3.004;2023-03-21T03:43:27;99039.25;;;21.71;81.19
24390;BME280;12510;56.468;-3.004;2023-03-21T03:45:57;99042.09;;;21.65;81.57
24390;BME280;12510;56.468;-3.004;2023-03-21T03:48:27;99045.59;;;21.48;83.88
24390;BME280;12510;56.468;-3.004;2023-03-21T03:51:06;99040.03;;;21.72;81.86
24390;BME280;12510;56.468;-3.004;2023-03-21T03:54:02;99028.91;;;21.24;83.68
24390;BME280;12510;56.468;-3.004;2023-03-21T03:56:31;99031.03;;;20.88;86.89
24390;BME280;12510;56.468;-3.004;2023-03-21T03:59:00;99025.19;;;20.91;86.85
24390;BME280;12510;56.468;-3.004;2023-03-21T04:01:45;99023.28;;;21.42;83.65
24390;BME280;12510;56.468;-3.004;2023-03-21T04:04:11;99028.47;;;21.49;83.30
24390;BME280;12510;56.468;-3.004;2023-03-21T04:06:43;99021.00;;;21.51;81.52
24390;BME280;12510;56.468;-3.004;2023-03-21T04:09:20;99019.34;;;21.28;83.75
24390;BME280;12510;56.468;-3.004;2023-03-21T04:11:47;99016.28;;;21.19;84.87
24390;BME280;12510;56.468;-3.004;2023-03-21T04:14:14;99010.84;;;21.14;84.93
24390;BME280;12510;56.468;-3.004;2023-03-21T04:16:41;99008.41;;;21.13;84.89
24390;BME280;12510;56.468;-3.004;2023-03-21T04:19:08;99002.66;;;21.04;85.83
24390;BME280;12510;56.468;-3.004;2023-03-21T04:21:34;98999.78;;;21.27;84.12
24390;BME280;12510;56.468;-3.004;2023-03-21T04:24:01;99006.78;;;21.12;85.47
24390;BME280;12510;56.468;-3.004;2023-03-21T04:26:28;98993.78;;;21.20;84.78
24390;BME280;12510;56.468;-3.004;2023-03-21T04:29:16;98994.38;;;21.22;84.74
24390;BME280;12510;56.468;-3.004;2023-03-21T04:32:02;98999.63;;;20.49;91.99
24390;BME280;12510;56.468;-3.004;2023-03-21T04:34:29;98992.47;;;20.84;90.29
24390;BME280;12510;56.468;-3.004;2023-03-21T04:36:58;98990.13;;;20.87;88.72
24390;BME280;12510;56.468;-3.004;2023-03-21T04:39:25;98985.53;;;21.22;87.49
24390;BME280;12510;56.468;-3.004;2023-03-21T04:41:51;98992.47;;;21.01;89.50
24390;BME280;12510;56.468;-3.004;2023-03-21T04:44:18;98987.09;;;21.18;87.62
24390;BME280;12510;56.468;-3.004;2023-03-21T04:46:45;98984.09;;;21.36;85.23
24390;BME280;12510;56.468;-3.004;2023-03-21T04:49:12;98988.91;;;21.34;86.19
24390;BME280;12510;56.468;-3.004;2023-03-21T04:51:38;98989.63;;;20.73;90.35
24390;BME280;12510;56.468;-3.004;2023-03-21T04:54:09;98976.75;;;20.87;89.84
24390;BME280;12510;56.468;-3.004;2023-03-21T04:56:36;98989.03;;;19.68;96.91
24390;BME280;12510;56.468;-3.004;2023-03-21T04:59:09;98984.25;;;20.10;96.76
24390;BME280;12510;56.468;-3.004;2023-03-21T05:01:36;98977.38;;;20.77;93.15
24390;BME280;12510;56.468;-3.004;2023-03-21T05:04:03;98965.63;;;20.79;91.03
24390;BME280;12510;56.468;-3.004;2023-03-21T05:06:32;98969.09;;;20.62;93.11
24390;BME280;12510;56.468;-3.004;2023-03-21T05:08:59;98954.31;;;21.10;89.59
24390;BME280;12510;56.468;-3.004;2023-03-21T05:11:27;98953.03;;;20.96;89.88
24390;BME280;12510;56.468;-3.004;2023-03-21T05:13:58;98948.41;;;21.08;88.60
24390;BME280;12510;56.468;-3.004;2023-03-21T05:16:24;98957.47;;;20.22;92.39
24390;BME280;12510;56.468;-3.004;2023-03-21T05:18:56;98950.53;;;20.55;94.15
24390;BME280;12510;56.468;-3.004;2023-03-21T05:21:25;98950.25;;;20.69;91.09
24390;BME280;12510;56.468;-3.004;2023-03-21T05:23:56;98953.75;;;20.57;92.78
24390;BME280;12510;56.468;-3.004;2023-03-21T05:26:24;98943.97;;;20.46;93.20
24390;BME280;12510;56.468;-3.004;2023-03-21T05:28:57;98949.63;;;21.01;90.68
24390;BME280;12510;56.468;-3.004;2023-03-21T05:31:24;98945.75;;;21.08;89.22
24390;BME280;12510;56.468;-3.004;2023-03-21T05:34:04;98942.75;;;19.91;93.18
24390;BME280;12510;56.468;-3.004;2023-03-21T05:36:31;98946.91;;;20.45;95.21
24390;BME280;12510;56.468;-3.004;2023-03-21T05:39:00;98938.31;;;20.76;91.56
24390;BME280;12510;56.468;-3.004;2023-03-21T05:41:27;98942.84;;;20.93;90.97
24390;BME280;12510;56.468;-3.004;2023-03-21T05:43:54;98937.00;;;20.45;92.10
24390;BME280;12510;56.468;-3.004;2023-03-21T05:46:21;98944.06;;;20.51;93.98
24390;BME280;12510;56.468;-3.004;2023-03-21T05:48:47;98934.50;;;20.21;93.27
24390;BME280;12510;56.468;-3.004;2023-03-21T05:51:17;98938.56;;;20.75;92.61
24390;BME280;12510;56.468;-3.004;2023-03-21T05:53:43;98938.53;;;20.92;91.59
24390;BME280;12510;56.468;-3.004;2023-03-21T05:56:10;98924.13;;;20.76;92.33
24390;BME280;12510;56.468;-3.004;2023-03-21T05:58:46;98933.16;;;21.09;90.94
24390;BME280;12510;56.468;-3.004;2023-03-21T06:01:13;98925.94;;;21.09;91.19
24390;BME280;12510;56.468;-3.004;2023-03-21T06:03:44;98914.75;;;21.35;87.88
24390;BME280;12510;56.468;-3.004;2023-03-21T06:06:20;98915.81;;;21.12;88.93
24390;BME280;12510;56.468;-3.004;2023-03-21T06:08:59;98904.50;;;20.53;91.98
24390;BME280;12510;56.468;-3.004;2023-03-21T06:11:28;98909.03;;;20.87;91.90
24390;BME280;12510;56.468;-3.004;2023-03-21T06:14:17;98909.50;;;21.01;90.27
24390;BME280;12510;56.468;-3.004;2023-03-21T06:16:46;98908.97;;;20.82;90.35
24390;BME280;12510;56.468;-3.004;2023-03-21T06:19:13;98910.44;;;21.12;89.49
24390;BME280;12510;56.468;-3.004;2023-03-21T06:22:02;98923.00;;;20.72;91.51
24390;BME280;12510;56.468;-3.004;2023-03-21T06:24:31;98923.53;;;20.91;90.83
24390;BME280;12510;56.468;-3.004;2023-03-21T06:26:58;98911.44;;;21.05;89.21
24390;BME280;12510;56.468;-3.004;2023-03-21T06:29:27;98907.75;;;20.55;92.34
24390;BME280;12510;56.468;-3.004;2023-03-21T06:31:54;98910.41;;;20.38;92.75
24390;BME280;12510;56.468;-3.004;2023-03-21T06:34:20;98906.22;;;20.76;92.45
24390;BME280;12510;56.468;-3.004;2023-03-21T06:36:47;98907.19;;;20.36;94.31
24390;BME280;12510;56.468;-3.004;2023-03-21T06:39:15;98902.16;;;20.40;93.75
24390;BME280;12510;56.468;-3.004;2023-03-21T06:41:42;98905.00;;;20.50;94.28
24390;BME280;12510;56.468;-3.004;2023-03-21T06:44:09;98903.44;;;19.74;97.93
24390;BME280;12510;56.468;-3.004;2023-03-21T06:46:43;98913.81;;;19.18;100.00
24390;BME280;12510;56.468;-3.004;2023-03-21T06:49:12;98909.75;;;19.28;100.00
24390;BME280;12510;56.468;-3.004;2023-03-21T06:51:38;98899.31;;;20.47;96.63
24390;BME280;12510;56.468;-3.004;2023-03-21T06:54:09;98898.53;;;20.12;93.95
24390;BME280;12510;56.468;-3.004;2023-03-21T06:56:55;98903.22;;;20.22;95.72
24390;BME280;12510;56.468;-3.004;2023-03-21T06:59:26;98901.44;;;20.27;94.45
24390;BME280;12510;56.468;-3.004;2023-03-21T07:01:57;98910.44;;;20.21;98.41
24390;BME280;12510;56.468;-3.004;2023-03-21T07:04:24;98913.81;;;20.68;94.67
24390;BME280;12510;56.468;-3.004;2023-03-21T07:06:53;98905.97;;;20.27;95.26
24390;BME280;12510;56.468;-3.004;2023-03-21T07:09:21;98918.91;;;20.01;98.42
24390;BME280;12510;56.468;-3.004;2023-03-21T07:11:51;98923.63;;;20.11;99.17
24390;BME280;12510;56.468;-3.004;2023-03-21T07:14:22;98926.03;;;20.13;95.60
24390;BME280;12510;56.468;-3.004;2023-03-21T07:16:49;98917.00;;;20.48;95.81
24390;BME280;12510;56.468;-3.004;2023-03-21T07:19:15;98923.09;;;19.97;96.49
24390;BME280;12510;56.468;-3.004;2023-03-21T07:21:42;98918.91;;;20.01;98.18
24390;BME280;12510;56.468;-3.004;2023-03-21T07:24:08;98921.84;;;20.17;98.96
24390;BME280;12510;56.468;-3.004;2023-03-21T07:26:35;98917.53;;;19.99;99.00
24390;BME280;12510;56.468;-3.004;2023-03-21T07:29:03;98922.91;;;19.87;100.00
24390;BME280;12510;56.468;-3.004;2023-03-21T07:31:29;98909.63;;;20.72;93.64
24390;BME280;12510;56.468;-3.004;2023-03-21T07:33:56;98910.66;;;20.71;93.75
24390;BME280;12510;56.468;-3.004;2023-03-21T07:36:22;98919.69;;;20.82;92.80
24390;BME280;12510;56.468;-3.004;2023-03-21T07:38:49;98912.75;;;20.01;95.50
24390;BME280;12510;56.468;-3.004;2023-03-21T07:41:21;98911.66;;;20.82;93.43
24390;BME280;12510;56.468;-3.004;2023-03-21T07:43:49;98910.34;;;20.50;94.23
24390;BME280;12510;56.468;-3.004;2023-03-21T07:46:18;98900.97;;;19.73;98.54
24390;BME280;12510;56.468;-3.004;2023-03-21T07:48:44;98902.06;;;20.01;98.34
24390;BME280;12510;56.468;-3.004;2023-03-21T07:51:10;98898.38;;;20.19;96.78
24390;BME280;12510;56.468;-3.004;2023-03-21T07:53:37;98900.69;;;20.49;94.99
24390;BME280;12510;56.468;-3.004;2023-03-21T07:56:04;98901.84;;;20.70;94.64
24390;BME280;12510;56.468;-3.004;2023-03-21T07:58:31;98902.00;;;20.81;94.81
24390;BME280;12510;56.468;-3.004;2023-03-21T08:00:59;98891.13;;;20.02;93.87
24390;BME280;12510;56.468;-3.004;2023-03-21T08:03:27;98896.09;;;20.62;96.04
24390;BME280;12510;56.468;-3.004;2023-03-21T08:05:54;98897.19;;;20.83;94.76
24390;BME280;12510;56.468;-3.004;2023-03-21T08:08:21;98889.91;;;20.61;91.78
24390;BME280;12510;56.468;-3.004;2023-03-21T08:10:47;98910.59;;;20.83;96.85
24390;BME280;12510;56.468;-3.004;2023-03-21T08:13:13;98894.44;;;20.77;94.28
24390;BME280;12510;56.468;-3.004;2023-03-21T08:15:40;98895.03;;;20.80;95.11
24390;BME280;12510;56.468;-3.004;2023-03-21T08:18:08;98893.56;;;21.33;91.35
24390;BME280;12510;56.468;-3.004;2023-03-21T08:20:35;98889.94;;;21.89;86.81
24390;BME280;12510;56.468;-3.004;2023-03-21T08:23:01;98900.13;;;22.52;88.11
24390;BME280;12510;56.468;-3.004;2023-03-21T08:25:28;98898.66;;;24.08;85.44
24390;BME280;12510;56.468;-3.004;2023-03-21T08:27:54;98903.97;;;24.86;84.70
24390;BME280;12510;56.468;-3.004;2023-03-21T08:30:23;98873.81;;;25.54;71.40
24390;BME280;12510;56.468;-3.004;2023-03-21T08:32:55;98864.75;;;25.80;65.63
24390;BME280;12510;56.468;-3.004;2023-03-21T08:35:22;98892.09;;;26.42;76.31
24390;BME280;12510;56.468;-3.004;2023-03-21T08:37:49;98864.00;;;27.21;65.08
24390;BME280;12510;56.468;-3.004;2023-03-21T08:40:16;98853.13;;;26.24;62.91
24390;BME280;12510;56.468;-3.004;2023-03-21T08:42:43;98846.91;;;27.25;60.39
24390;BME280;12510;56.468;-3.004;2023-03-21T08:45:13;98863.22;;;26.72;67.66
24390;BME280;12510;56.468;-3.004;2023-03-21T08:47:39;98864.69;;;27.70;65.82
24390;BME280;12510;56.468;-3.004;2023-03-21T08:50:08;98826.97;;;28.58;52.46
24390;BME280;12510;56.468;-3.004;2023-03-21T08:52:34;98847.97;;;28.81;56.55
24390;BME280;12510;56.468;-3.004;2023-03-21T08:55:02;98833.25;;;27.17;55.35
24390;BME280;12510;56.468;-3.004;2023-03-21T08:57:29;98821.31;;;28.13;52.00
24390;BME280;12510;56.468;-3.004;2023-03-21T08:59:55;98823.16;;;28.59;50.99
24390;BME280;12510;56.468;-3.004;2023-03-21T09:02:22;98832.72;;;28.85;52.68
24390;BME280;12510;56.468;-3.004;2023-03-21T09:04:48;98833.09;;;28.03;54.23
24390;BME280;12510;56.468;-3.004;2023-03-21T09:07:18;98828.09;;;30.09;52.91
24390;BME280;12510;56.468;-3.004;2023-03-21T09:09:45;98817.25;;;28.85;48.33
24390;BME280;12510;56.468;-3.004;2023-03-21T09:12:12;98828.44;;;27.71;52.13
24390;BME280;12510;56.468;-3.004;2023-03-21T09:14:38;98834.31;;;28.72;52.30
24390;BME280;12510;56.468;-3.004;2023-03-21T09:17:05;98827.03;;;27.16;53.16
24390;BME280;12510;56.468;-3.004;2023-03-21T09:19:31;98831.91;;;26.41;55.19
24390;BME280;12510;56.468;-3.004;2023-03-21T09:21:58;98834.28;;;25.84;56.78
24390;BME280;12510;56.468;-3.004;2023-03-21T09:24:24;98846.28;;;25.07;60.53
24390;BME280;12510;56.468;-3.004;2023-03-21T09:26:51;98840.34;;;25.16;59.94
24390;BME280;12510;56.468;-3.004;2023-03-21T09:29:18;98845.13;;;24.22;63.44
24390;BME280;12510;56.468;-3.004;2023-03-21T09:31:46;98844.56;;;23.89;65.07
24390;BME280;12510;56.468;-3.004;2023-03-21T09:34:13;98845.63;;;23.73;66.49
24390;BME280;12510;56.468;-3.004;2023-03-21T09:36:42;98840.44;;;23.35;68.00
24390;BME280;12510;56.468;-3.004;2023-03-21T09:39:13;98838.03;;;23.49;68.21
24390;BME280;12510;56.468;-3.004;2023-03-21T09:42:06;98827.09;;;24.28;63.61
24390;BME280;12510;56.468;-3.004;2023-03-21T09:44:47;98838.88;;;23.65;66.10
24390;BME280;12510;56.468;-3.004;2023-03-21T09:47:29;98823.91;;;23.90;65.27
24390;BME280;12510;56.468;-3.004;2023-03-21T09:50:16;98819.28;;;24.37;62.02
24390;BME280;12510;56.468;-3.004;2023-03-21T09:55:39;98817.47;;;25.58;58.00
24390;BME280;12510;56.468;-3.004;2023-03-21T10:00:49;98810.16;;;24.12;62.55
24390;BME280;12510;56.468;-3.004;2023-03-21T10:03:24;98815.25;;;24.14;62.67
24390;BME280;12510;56.468;-3.004;2023-03-21T10:05:53;98807.63;;;24.72;60.77
24390;BME280;12510;56.468;-3.004;2023-03-21T10:08:35;98808.47;;;24.47;62.08
24390;BME280;12510;56.468;-3.004;2023-03-21T10:11:18;98805.56;;;24.33;62.42
24390;BME280;12510;56.468;-3.004;2023-03-21T10:13:55;98802.88;;;24.28;62.48
24390;BME280;12510;56.468;-3.004;2023-03-21T10:16:44;98798.06;;;24.09;62.61
24390;BME280;12510;56.468;-3.004;2023-03-21T10:19:14;98794.56;;;23.93;63.42
24390;BME280;12510;56.468;-3.004;2023-03-21T10:21:46;98809.53;;;24.62;61.54
24390;BME280;12510;56.468;-3.004;2023-03-21T10:24:15;98805.59;;;24.07;62.98
24390;BME280;12510;56.468;-3.004;2023-03-21T10:26:43;98809.88;;;24.19;62.64
24390;BME280;12510;56.468;-3.004;2023-03-21T10:29:13;98806.41;;;24.23;62.38
24390;BME280;12510;56.468;-3.004;2023-03-21T10:31:40;98799.63;;;24.62;61.50
24390;BME280;12510;56.468;-3.004;2023-03-21T10:34:23;98793.38;;;24.72;62.16
24390;BME280;12510;56.468;-3.004;2023-03-21T10:36:53;98779.91;;;25.32;60.34
24390;BME280;12510;56.468;-3.004;2023-03-21T10:39:36;98777.09;;;25.48;59.27
24390;BME280;12510;56.468;-3.004;2023-03-21T10:42:04;98778.59;;;25.24;60.81
24390;BME280;12510;56.468;-3.004;2023-03-21T10:44:34;98774.50;;;25.32;59.40
24390;BME280;12510;56.468;-3.004;2023-03-21T10:47:06;98772.69;;;25.62;58.16
24390;BME280;12510;56.468;-3.004;2023-03-21T10:49:35;98776.78;;;25.54;59.82
24390;BME280;12510;56.468;-3.004;2023-03-21T10:52:05;98758.41;;;25.22;58.45
24390;BME280;12510;56.468;-3.004;2023-03-21T10:54:33;98760.13;;;25.87;58.10
24390;BME280;12510;56.468;-3.004;2023-03-21T10:57:12;98754.16;;;26.19;54.35
24390;BME280;12510;56.468;-3.004;2023-03-21T10:59:44;98760.09;;;25.57;55.78
24390;BME280;12510;56.468;-3.004;2023-03-21T11:02:30;98743.75;;;26.07;54.87
24390;BME280;12510;56.468;-3.004;2023-03-21T11:05:04;98750.59;;;25.94;54.58
24390;BME280;12510;56.468;-3.004;2023-03-21T11:07:31;98753.72;;;25.43;55.04
24390;BME280;12510;56.468;-3.004;2023-03-21T11:09:59;98754.31;;;25.99;55.13
24390;BME280;12510;56.468;-3.004;2023-03-21T11:12:36;98749.16;;;26.07;53.41
24390;BME280;12510;56.468;-3.004;2023-03-21T11:17:53;98742.56;;;26.67;53.16
24390;BME280;12510;56.468;-3.004;2023-03-21T11:20:22;98738.53;;;26.89;51.22
24390;BME280;12510;56.468;-3.004;2023-03-21T11:22:53;98738.06;;;26.82;51.36
24390;BME280;12510;56.468;-3.004;2023-03-21T11:25:35;98736.84;;;26.74;51.04
24390;BME280;12510;56.468;-3.004;2023-03-21T11:28:14;98736.78;;;26.79;51.68
24390;BME280;12510;56.468;-3.004;2023-03-21T11:33:18;98732.31;;;26.88;50.95
24390;BME280;12510;56.468;-3.004;2023-03-21T11:36:03;98726.53;;;27.33;50.90
24390;BME280;12510;56.468;-3.004;2023-03-21T11:38:39;98715.69;;;27.19;49.46
24390;BME280;12510;56.468;-3.004;2023-03-21T11:41:06;98719.69;;;27.22;52.23
24390;BME280;12510;56.468;-3.004;2023-03-21T11:43:37;98711.53;;;26.89;51.34
24390;BME280;12510;56.468;-3.004;2023-03-21T11:46:11;98705.19;;;27.37;50.19
24390;BME280;12510;56.468;-3.004;2023-03-21T11:48:41;98707.16;;;26.93;50.01
24390;BME280;12510;56.468;-3.004;2023-03-21T11:54:14;98714.59;;;27.01;49.32
24390;BME280;12510;56.468;-3.004;2023-03-21T11:56:51;98718.59;;;26.85;49.93
24390;BME280;12510;56.468;-3.004;2023-03-21T11:59:25;98718.56;;;26.41;50.19
24390;BME280;12510;56.468;-3.004;2023-03-21T12:05:27;98711.44;;;26.75;50.83
24390;BME280;12510;56.468;-3.004;2023-03-21T12:08:25;98710.63;;;26.74;49.65
24390;BME280;12510;56.468;-3.004;2023-03-21T12:13:40;98704.56;;;26.39;51.08
24390;BME280;12510;56.468;-3.004;2023-03-21T12:16:22;98697.38;;;26.05;51.60
24390;BME280;12510;56.468;-3.004;2023-03-21T12:27:42;98671.06;;;25.92;50.94
24390;BME280;12510;56.468;-3.004;2023-03-21T12:35:49;98649.88;;;26.53;49.90
24390;BME280;12510;56.468;-3.004;2023-03-21T12:38:31;98648.47;;;26.80;50.22
24390;BME280;12510;56.468;-3.004;2023-03-21T12:49:08;98645.75;;;25.88;50.23
24390;BME280;12510;56.468;-3.004;2023-03-21T12:51:45;98630.97;;;26.34;49.98
24390;BME280;12510;56.468;-3.004;2023-03-21T12:57:04;98639.13;;;26.29;51.63
24390;BME280;12510;56.468;-3.004;2023-03-21T12:59:35;98644.97;;;25.87;52.40
24390;BME280;12510;56.468;-3.004;2023-03-21T13:02:30;98638.19;;;25.31;55.08
24390;BME280;12510;56.468;-3.004;2023-03-21T13:05:20;98639.69;;;26.50;53.02
24390;BME280;12510;56.468;-3.004;2023-03-21T13:07:53;98627.41;;;25.31;53.18
24390;BME280;12510;56.468;-3.004;2023-03-21T13:10:22;98630.91;;;25.37;53.54
24390;BME280;12510;56.468;-3.004;2023-03-21T13:13:08;98643.72;;;25.50;54.58
24390;BME280;12510;56.468;-3.004;2023-03-21T13:24:14;98626.03;;;25.39;48.85
24390;BME280;12510;56.468;-3.004;2023-03-21T13:26:46;98621.41;;;24.75;49.09
24390;BME280;12510;56.468;-3.004;2023-03-21T13:29:28;98617.53;;;24.87;48.28
24390;BME280;12510;56.468;-3.004;2023-03-21T13:32:08;98618.00;;;24.94;49.35
24390;BME280;12510;56.468;-3.004;2023-03-21T13:34:37;98617.91;;;26.22;48.49
24390;BME280;12510;56.468;-3.004;2023-03-21T13:37:04;98609.47;;;26.29;48.21
24390;BME280;12510;56.468;-3.004;2023-03-21T13:39:30;98619.34;;;25.36;50.52
24390;BME280;12510;56.468;-3.004;2023-03-21T13:42:03;98613.28;;;26.03;49.39
24390;BME280;12510;56.468;-3.004;2023-03-21T13:44:38;98619.63;;;25.35;51.19
24390;BME280;12510;56.468;-3.004;2023-03-21T13:55:33;98613.97;;;26.76;49.74
24390;BME280;12510;56.468;-3.004;2023-03-21T13:58:22;98618.66;;;25.50;52.39
24390;BME280;12510;56.468;-3.004;2023-03-21T14:01:27;98611.09;;;25.52;52.93
24390;BME280;12510;56.468;-3.004;2023-03-21T14:06:49;98592.66;;;26.13;50.45
24390;BME280;12510;56.468;-3.004;2023-03-21T14:09:32;98595.09;;;25.31;52.76
24390;BME280;12510;56.468;-3.004;2023-03-21T14:12:02;98580.69;;;25.94;51.40
24390;BME280;12510;56.468;-3.004;2023-03-21T14:14:34;98594.53;;;26.12;53.64
24390;BME280;12510;56.468;-3.004;2023-03-21T14:17:11;98598.03;;;24.05;58.74
24390;BME280;12510;56.468;-3.004;2023-03-21T14:19:37;98585.59;;;26.36;55.90
24390;BME280;12510;56.468;-3.004;2023-03-21T14:22:10;98573.19;;;26.16;53.92
24390;BME280;12510;56.468;-3.004;2023-03-21T14:24:37;98564.59;;;26.14;52.85
24390;BME280;12510;56.468;-3.004;2023-03-21T14:27:04;98561.38;;;26.12;51.92
24390;BME280;12510;56.468;-3.004;2023-03-21T14:29:34;98557.91;;;26.30;51.99
24390;BME280;12510;56.468;-3.004;2023-03-21T14:32:01;98572.59;;;25.17;52.39
24390;BME280;12510;56.468;-3.004;2023-03-21T14:34:31;98566.31;;;24.52;54.25
24390;BME280;12510;56.468;-3.004;2023-03-21T14:36:58;98567.44;;;26.03;52.62
24390;BME280;12510;56.468;-3.004;2023-03-21T14:39:30;98555.13;;;25.43;53.06
24390;BME280;12510;56.468;-3.004;2023-03-21T14:42:03;98561.69;;;25.62;54.72
24390;BME280;12510;56.468;-3.004;2023-03-21T14:44:37;98560.94;;;24.97;53.69
24390;BME280;12510;56.468;-3.004;2023-03-21T14:47:05;98556.97;;;25.72;54.61
24390;BME280;12510;56.468;-3.004;2023-03-21T14:49:34;98554.53;;;26.57;51.83
24390;BME280;12510;56.468;-3.004;2023-03-21T14:52:03;98536.06;;;26.84;49.27